sensor_id;sensor_type;location;lat;lon;timestamp;P1;durP1;ratioP1;P2;durP2;ratioP2
20104;SDS011;10212;42.714;23.310;2023-04-19T00:02:28;3.20;;;2.28;;
20104;SDS011;10212;42.714;23.310;2023-04-19T00:12:29;3.60;;;2.50;;
20104;SDS011;10212;42.714;23.310;2023-04-19T00:22:29;5.28;;;2.72;;
20104;SDS011;10212;42.714;23.310;2023-04-19T00:32:30;3.70;;;2.30;;
20104;SDS011;10212;42.714;23.310;2023-04-19T00:42:30;2.80;;;1.95;;
20104;SDS011;10212;42.714;23.310;2023-04-19T00:52:31;4.30;;;2.38;;
20104;SDS011;10212;42.714;23.310;2023-04-19T01:02:32;3.50;;;2.60;;
20104;SDS011;10212;42.714;23.310;2023-04-19T01:12:33;2.53;;;2.20;;
20104;SDS011;10212;42.714;23.310;2023-04-19T01:22:34;2.30;;;2.08;;
20104;SDS011;10212;42.714;23.310;2023-04-19T01:32:36;3.00;;;2.30;;
20104;SDS011;10212;42.714;23.310;2023-04-19T01:42:37;6.10;;;2.47;;
20104;SDS011;10212;42.714;23.310;2023-04-19T01:52:37;3.03;;;2.35;;
20104;SDS011;10212;42.714;23.310;2023-04-19T02:02:38;3.67;;;2.50;;
20104;SDS011;10212;42.714;23.310;2023-04-19T02:12:39;3.85;;;2.65;;
20104;SDS011;10212;42.714;23.310;2023-04-19T02:22:41;3.80;;;3.00;;
20104;SDS011;10212;42.714;23.310;2023-04-19T02:32:42;6.15;;;5.55;;
20104;SDS011;10212;42.714;23.310;2023-04-19T02:42:43;5.55;;;4.65;;
20104;SDS011;10212;42.714;23.310;2023-04-19T02:52:43;6.97;;;4.13;;
20104;SDS011;10212;42.714;23.310;2023-04-19T03:02:44;5.45;;;4.00;;
20104;SDS011;10212;42.714;23.310;2023-04-19T03:12:44;5.50;;;4.13;;
20104;SDS011;10212;42.714;23.310;2023-04-19T03:22:45;5.10;;;4.45;;
20104;SDS011;10212;42.714;23.310;2023-04-19T03:32:46;6.43;;;4.50;;
20104;SDS011;10212;42.714;23.310;2023-04-19T03:42:46;6.32;;;4.35;;
20104;SDS011;10212;42.714;23.310;2023-04-19T03:52:47;7.18;;;4.90;;
20104;SDS011;10212;42.714;23.310;2023-04-19T04:02:47;7.65;;;4.88;;
20104;SDS011;10212;42.714;23.310;2023-04-19T04:12:48;5.60;;;5.00;;
20104;SDS011;10212;42.714;23.310;2023-04-19T04:22:48;6.53;;;5.82;;
20104;SDS011;10212;42.714;23.310;2023-04-19T04:32:49;6.22;;;5.50;;
20104;SDS011;10212;42.714;23.310;2023-04-19T04:42:50;7.70;;;5.40;;
20104;SDS011;10212;42.714;23.310;2023-04-19T04:52:53;8.23;;;5.80;;
20104;SDS011;10212;42.714;23.310;2023-04-19T05:02:53;9.70;;;5.30;;
20104;SDS011;10212;42.714;23.310;2023-04-19T05:12:54;10.45;;;7.40;;
20104;SDS011;10212;42.714;23.310;2023-04-19T05:22:58;10.20;;;6.15;;
20104;SDS011;10212;42.714;23.310;2023-04-19T05:33:00;9.77;;;6.50;;
20104;SDS011;10212;42.714;23.310;2023-04-19T05:43:00;9.45;;;6.32;;
20104;SDS011;10212;42.714;23.310;2023-04-19T05:53:01;10.38;;;6.13;;
20104;SDS011;10212;42.714;23.310;2023-04-19T06:03:02;8.05;;;5.53;;
20104;SDS011;10212;42.714;23.310;2023-04-19T06:13:02;8.00;;;6.28;;
20104;SDS011;10212;42.714;23.310;2023-04-19T06:23:04;6.70;;;5.75;;
20104;SDS011;10212;42.714;23.310;2023-04-19T06:33:05;8.85;;;5.90;;
20104;SDS011;10212;42.714;23.310;2023-04-19T06:43:06;11.60;;;5.70;;
20104;SDS011;10212;42.714;23.310;2023-04-19T06:53:06;9.32;;;6.00;;
20104;SDS011;10212;42.714;23.310;2023-04-19T07:03:07;8.00;;;5.22;;
20104;SDS011;10212;42.714;23.310;2023-04-19T07:13:11;8.57;;;5.75;;
20104;SDS011;10212;42.714;23.310;2023-04-19T07:23:11;9.38;;;5.50;;
20104;SDS011;10212;42.714;23.310;2023-04-19T07:33:12;7.45;;;4.43;;
20104;SDS011;10212;42.714;23.310;2023-04-19T07:43:12;7.85;;;4.53;;
20104;SDS011;10212;42.714;23.310;2023-04-19T07:53:13;5.97;;;4.68;;
20104;SDS011;10212;42.714;23.310;2023-04-19T08:03:14;6.43;;;3.80;;
20104;SDS011;10212;42.714;23.310;2023-04-19T08:13:14;7.28;;;4.20;;
20104;SDS011;10212;42.714;23.310;2023-04-19T08:23:15;6.13;;;3.97;;
20104;SDS011;10212;42.714;23.310;2023-04-19T08:33:16;7.55;;;3.60;;
20104;SDS011;10212;42.714;23.310;2023-04-19T08:43:18;3.10;;;2.60;;
20104;SDS011;10212;42.714;23.310;2023-04-19T08:53:20;2.60;;;2.40;;
20104;SDS011;10212;42.714;23.310;2023-04-19T09:03:22;4.47;;;3.17;;
20104;SDS011;10212;42.714;23.310;2023-04-19T09:13:22;3.87;;;2.90;;
20104;SDS011;10212;42.714;23.310;2023-04-19T09:23:24;3.90;;;3.00;;
20104;SDS011;10212;42.714;23.310;2023-04-19T09:33:33;3.67;;;3.15;;
20104;SDS011;10212;42.714;23.310;2023-04-19T09:43:41;4.47;;;2.70;;
20104;SDS011;10212;42.714;23.310;2023-04-19T09:53:41;3.33;;;2.63;;
20104;SDS011;10212;42.714;23.310;2023-04-19T10:03:45;2.30;;;1.90;;
20104;SDS011;10212;42.714;23.310;2023-04-19T10:13:48;5.03;;;4.35;;
20104;SDS011;10212;42.714;23.310;2023-04-19T10:23:55;3.70;;;2.17;;
20104;SDS011;10212;42.714;23.310;2023-04-19T10:33:57;3.83;;;2.90;;
20104;SDS011;10212;42.714;23.310;2023-04-19T10:53:59;5.93;;;2.72;;
20104;SDS011;10212;42.714;23.310;2023-04-19T11:03:59;3.97;;;2.90;;
20104;SDS011;10212;42.714;23.310;2023-04-19T11:14:00;4.00;;;3.00;;
20104;SDS011;10212;42.714;23.310;2023-04-19T11:24:06;3.78;;;2.60;;
20104;SDS011;10212;42.714;23.310;2023-04-19T11:34:10;3.15;;;2.70;;
20104;SDS011;10212;42.714;23.310;2023-04-19T11:44:15;4.78;;;2.80;;
20104;SDS011;10212;42.714;23.310;2023-04-19T11:54:18;3.65;;;2.17;;
20104;SDS011;10212;42.714;23.310;2023-04-19T12:04:22;3.22;;;2.25;;
20104;SDS011;10212;42.714;23.310;2023-04-19T12:14:23;2.20;;;2.00;;
20104;SDS011;10212;42.714;23.310;2023-04-19T12:24:25;3.05;;;2.03;;
20104;SDS011;10212;42.714;23.310;2023-04-19T12:34:26;2.70;;;2.50;;
20104;SDS011;10212;42.714;23.310;2023-04-19T12:44:27;6.07;;;4.20;;
20104;SDS011;10212;42.714;23.310;2023-04-19T12:54:27;8.00;;;4.13;;
20104;SDS011;10212;42.714;23.310;2023-04-19T13:04:27;2.22;;;1.60;;
20104;SDS011;10212;42.714;23.310;2023-04-19T13:14:28;3.45;;;2.55;;
20104;SDS011;10212;42.714;23.310;2023-04-19T13:24:28;4.25;;;2.25;;
20104;SDS011;10212;42.714;23.310;2023-04-19T13:34:29;2.05;;;1.60;;
20104;SDS011;10212;42.714;23.310;2023-04-19T13:44:29;5.67;;;4.00;;
20104;SDS011;10212;42.714;23.310;2023-04-19T13:54:30;3.00;;;1.80;;
20104;SDS011;10212;42.714;23.310;2023-04-19T14:04:31;1.67;;;1.50;;
20104;SDS011;10212;42.714;23.310;2023-04-19T14:14:31;3.38;;;2.10;;
20104;SDS011;10212;42.714;23.310;2023-04-19T14:24:32;2.08;;;1.75;;
20104;SDS011;10212;42.714;23.310;2023-04-19T14:34:32;4.35;;;1.95;;
20104;SDS011;10212;42.714;23.310;2023-04-19T14:44:33;3.35;;;2.17;;
20104;SDS011;10212;42.714;23.310;2023-04-19T14:54:33;5.55;;;1.90;;
20104;SDS011;10212;42.714;23.310;2023-04-19T15:04:33;3.60;;;2.20;;
20104;SDS011;10212;42.714;23.310;2023-04-19T15:14:34;3.20;;;2.25;;
20104;SDS011;10212;42.714;23.310;2023-04-19T15:24:35;6.07;;;3.30;;
20104;SDS011;10212;42.714;23.310;2023-04-19T15:34:35;6.47;;;4.68;;
20104;SDS011;10212;42.714;23.310;2023-04-19T15:44:36;14.88;;;6.25;;
20104;SDS011;10212;42.714;23.310;2023-04-19T15:54:36;6.55;;;5.43;;
20104;SDS011;10212;42.714;23.310;2023-04-19T16:04:37;6.47;;;4.45;;
20104;SDS011;10212;42.714;23.310;2023-04-19T16:14:37;7.45;;;5.22;;
20104;SDS011;10212;42.714;23.310;2023-04-19T16:24:38;8.75;;;6.43;;
20104;SDS011;10212;42.714;23.310;2023-04-19T16:34:38;8.80;;;6.80;;
20104;SDS011;10212;42.714;23.310;2023-04-19T16:44:39;9.20;;;6.63;;
20104;SDS011;10212;42.714;23.310;2023-04-19T16:54:39;10.18;;;7.68;;
20104;SDS011;10212;42.714;23.310;2023-04-19T17:04:40;12.00;;;8.55;;
20104;SDS011;10212;42.714;23.310;2023-04-19T17:14:40;12.15;;;8.25;;
20104;SDS011;10212;42.714;23.310;2023-04-19T17:24:41;12.93;;;9.45;;
20104;SDS011;10212;42.714;23.310;2023-04-19T17:34:42;16.80;;;11.43;;
20104;SDS011;10212;42.714;23.310;2023-04-19T17:44:42;14.38;;;11.23;;
20104;SDS011;10212;42.714;23.310;2023-04-19T17:54:42;16.67;;;11.65;;
20104;SDS011;10212;42.714;23.310;2023-04-19T18:04:43;13.02;;;9.35;;
20104;SDS011;10212;42.714;23.310;2023-04-19T18:14:44;12.30;;;8.70;;
20104;SDS011;10212;42.714;23.310;2023-04-19T18:24:44;12.63;;;9.88;;
20104;SDS011;10212;42.714;23.310;2023-04-19T18:34:46;14.05;;;10.30;;
20104;SDS011;10212;42.714;23.310;2023-04-19T18:44:46;17.92;;;11.90;;
20104;SDS011;10212;42.714;23.310;2023-04-19T18:54:47;17.33;;;12.57;;
20104;SDS011;10212;42.714;23.310;2023-04-19T19:04:47;20.98;;;14.00;;
20104;SDS011;10212;42.714;23.310;2023-04-19T19:14:48;21.27;;;15.93;;
20104;SDS011;10212;42.714;23.310;2023-04-19T19:24:48;23.13;;;17.95;;
20104;SDS011;10212;42.714;23.310;2023-04-19T19:34:48;29.08;;;19.80;;
20104;SDS011;10212;42.714;23.310;2023-04-19T19:44:53;31.02;;;22.73;;
20104;SDS011;10212;42.714;23.310;2023-04-19T19:54:54;31.60;;;23.00;;
20104;SDS011;10212;42.714;23.310;2023-04-19T20:04:54;33.77;;;24.17;;
20104;SDS011;10212;42.714;23.310;2023-04-19T20:14:55;32.13;;;24.45;;
20104;SDS011;10212;42.714;23.310;2023-04-19T20:24:55;47.28;;;32.30;;
20104;SDS011;10212;42.714;23.310;2023-04-19T20:34:56;54.90;;;35.25;;
20104;SDS011;10212;42.714;23.310;2023-04-19T20:44:56;44.55;;;32.00;;
20104;SDS011;10212;42.714;23.310;2023-04-19T20:54:57;43.15;;;30.58;;
20104;SDS011;10212;42.714;23.310;2023-04-19T21:04:57;16.75;;;13.30;;
20104;SDS011;10212;42.714;23.310;2023-04-19T21:14:58;15.77;;;12.48;;
20104;SDS011;10212;42.714;23.310;2023-04-19T21:24:58;20.58;;;14.20;;
20104;SDS011;10212;42.714;23.310;2023-04-19T21:34:59;15.95;;;10.70;;
20104;SDS011;10212;42.714;23.310;2023-04-19T21:45:00;16.25;;;11.65;;
20104;SDS011;10212;42.714;23.310;2023-04-19T21:55:01;12.25;;;10.57;;
20104;SDS011;10212;42.714;23.310;2023-04-19T22:05:01;12.23;;;10.63;;
20104;SDS011;10212;42.714;23.310;2023-04-19T22:15:02;14.10;;;10.27;;
20104;SDS011;10212;42.714;23.310;2023-04-19T22:25:03;14.73;;;10.05;;
20104;SDS011;10212;42.714;23.310;2023-04-19T22:35:04;13.38;;;9.48;;
20104;SDS011;10212;42.714;23.310;2023-04-19T22:45:06;13.05;;;10.20;;
20104;SDS011;10212;42.714;23.310;2023-04-19T22:55:12;10.65;;;8.55;;
20104;SDS011;10212;42.714;23.310;2023-04-19T23:05:18;10.40;;;8.38;;
20104;SDS011;10212;42.714;23.310;2023-04-19T23:15:28;12.77;;;9.13;;
20104;SDS011;10212;42.714;23.310;2023-04-19T23:25:29;14.30;;;9.82;;
20104;SDS011;10212;42.714;23.310;2023-04-19T23:35:29;13.17;;;10.73;;
20104;SDS011;10212;42.714;23.310;2023-04-19T23:45:30;11.90;;;9.85;;
20104;SDS011;10212;42.714;23.310;2023-04-19T23:55:30;14.70;;;10.88;;
